sensor_id;sensor_type;location;lat;lon;timestamp;temperature;humidity
38910;DHT22;24676;51.360;12.354;2022-12-18T00:01:14;-8.00;99.90
38910;DHT22;24676;51.360;12.354;2022-12-18T00:04:00;-8.00;99.90
38910;DHT22;24676;51.360;12.354;2022-12-18T00:06:45;-8.00;99.90
38910;DHT22;24676;51.360;12.354;2022-12-18T00:09:29;-8.00;99.90
38910;DHT22;24676;51.360;12.354;2022-12-18T00:12:13;-8.10;99.90
38910;DHT22;24676;51.360;12.354;2022-12-18T00:14:57;-8.20;99.90
38910;DHT22;24676;51.360;12.354;2022-12-18T00:17:41;-8.20;99.90
38910;DHT22;24676;51.360;12.354;2022-12-18T00:20:25;-8.20;99.90
38910;DHT22;24676;51.360;12.354;2022-12-18T00:23:09;-8.30;99.90
38910;DHT22;24676;51.360;12.354;2022-12-18T00:25:53;-8.30;99.90
38910;DHT22;24676;51.360;12.354;2022-12-18T00:28:37;-8.30;99.90
38910;DHT22;24676;51.360;12.354;2022-12-18T00:31:23;-8.30;99.90
38910;DHT22;24676;51.360;12.354;2022-12-18T00:34:09;-8.30;99.90
38910;DHT22;24676;51.360;12.354;2022-12-18T00:36:53;-8.30;99.90
38910;DHT22;24676;51.360;12.354;2022-12-18T00:39:37;-8.20;99.90
38910;DHT22;24676;51.360;12.354;2022-12-18T00:42:22;-8.10;99.90
38910;DHT22;24676;51.360;12.354;2022-12-18T00:45:29;-8.10;99.90
38910;DHT22;24676;51.360;12.354;2022-12-18T00:48:14;-8.00;99.90
38910;DHT22;24676;51.360;12.354;2022-12-18T00:50:58;-8.00;99.90
38910;DHT22;24676;51.360;12.354;2022-12-18T00:53:42;-7.90;99.90
38910;DHT22;24676;51.360;12.354;2022-12-18T00:56:27;-7.90;99.90
38910;DHT22;24676;51.360;12.354;2022-12-18T00:59:11;-7.90;99.90
38910;DHT22;24676;51.360;12.354;2022-12-18T01:01:55;-7.90;99.90
38910;DHT22;24676;51.360;12.354;2022-12-18T01:04:39;-8.00;99.90
38910;DHT22;24676;51.360;12.354;2022-12-18T01:07:23;-8.00;99.90
38910;DHT22;24676;51.360;12.354;2022-12-18T01:10:10;-8.10;99.90
38910;DHT22;24676;51.360;12.354;2022-12-18T01:12:55;-8.00;99.90
38910;DHT22;24676;51.360;12.354;2022-12-18T01:15:39;-7.90;99.90
38910;DHT22;24676;51.360;12.354;2022-12-18T01:18:24;-7.90;99.90
38910;DHT22;24676;51.360;12.354;2022-12-18T01:21:09;-7.80;99.90
38910;DHT22;24676;51.360;12.354;2022-12-18T01:23:54;-7.80;99.90
38910;DHT22;24676;51.360;12.354;2022-12-18T01:26:39;-7.70;99.90
38910;DHT22;24676;51.360;12.354;2022-12-18T01:29:23;-7.70;99.90
38910;DHT22;24676;51.360;12.354;2022-12-18T01:32:07;-7.80;99.90
38910;DHT22;24676;51.360;12.354;2022-12-18T01:34:51;-7.80;99.90
38910;DHT22;24676;51.360;12.354;2022-12-18T01:37:35;-7.80;99.90
38910;DHT22;24676;51.360;12.354;2022-12-18T01:40:20;-7.80;99.90
38910;DHT22;24676;51.360;12.354;2022-12-18T01:43:04;-7.80;99.90
38910;DHT22;24676;51.360;12.354;2022-12-18T01:45:48;-7.90;99.90
38910;DHT22;24676;51.360;12.354;2022-12-18T01:48:32;-8.00;99.90
38910;DHT22;24676;51.360;12.354;2022-12-18T01:51:16;-8.10;99.90
38910;DHT22;24676;51.360;12.354;2022-12-18T01:54:01;-8.20;99.90
38910;DHT22;24676;51.360;12.354;2022-12-18T01:56:45;-8.20;99.90
38910;DHT22;24676;51.360;12.354;2022-12-18T01:59:31;-8.30;99.90
38910;DHT22;24676;51.360;12.354;2022-12-18T02:02:16;-8.40;99.90
38910;DHT22;24676;51.360;12.354;2022-12-18T02:05:00;-8.40;99.90
38910;DHT22;24676;51.360;12.354;2022-12-18T02:07:53;-8.40;99.90
38910;DHT22;24676;51.360;12.354;2022-12-18T02:28:11;-8.70;99.90
38910;DHT22;24676;51.360;12.354;2022-12-18T02:30:58;-8.70;99.90
38910;DHT22;24676;51.360;12.354;2022-12-18T02:33:43;-8.70;99.90
38910;DHT22;24676;51.360;12.354;2022-12-18T02:36:28;-8.60;99.90
38910;DHT22;24676;51.360;12.354;2022-12-18T02:39:14;-8.60;99.90
38910;DHT22;24676;51.360;12.354;2022-12-18T02:41:59;-8.60;99.90
38910;DHT22;24676;51.360;12.354;2022-12-18T02:44:50;-8.60;99.90
38910;DHT22;24676;51.360;12.354;2022-12-18T02:47:36;-8.60;99.90
38910;DHT22;24676;51.360;12.354;2022-12-18T02:53:39;-8.70;99.90
38910;DHT22;24676;51.360;12.354;2022-12-18T02:59:21;-8.80;99.90
38910;DHT22;24676;51.360;12.354;2022-12-18T03:02:24;-8.70;99.90
38910;DHT22;24676;51.360;12.354;2022-12-18T03:05:12;-8.70;99.90
38910;DHT22;24676;51.360;12.354;2022-12-18T03:07:59;-8.70;99.90
38910;DHT22;24676;51.360;12.354;2022-12-18T03:10:58;-8.70;99.90
38910;DHT22;24676;51.360;12.354;2022-12-18T03:13:46;-8.70;99.90
38910;DHT22;24676;51.360;12.354;2022-12-18T03:16:32;-8.80;99.90
38910;DHT22;24676;51.360;12.354;2022-12-18T03:19:18;-8.80;99.90
38910;DHT22;24676;51.360;12.354;2022-12-18T03:22:03;-8.80;99.90
38910;DHT22;24676;51.360;12.354;2022-12-18T03:24:49;-8.90;99.90
38910;DHT22;24676;51.360;12.354;2022-12-18T03:27:35;-8.90;99.90
38910;DHT22;24676;51.360;12.354;2022-12-18T03:30:20;-8.90;99.90
38910;DHT22;24676;51.360;12.354;2022-12-18T03:35:48;-8.90;99.90
38910;DHT22;24676;51.360;12.354;2022-12-18T03:38:33;-9.00;99.90
38910;DHT22;24676;51.360;12.354;2022-12-18T03:41:19;-9.00;99.90
38910;DHT22;24676;51.360;12.354;2022-12-18T03:44:13;-9.00;99.90
38910;DHT22;24676;51.360;12.354;2022-12-18T03:47:03;-9.00;99.90
38910;DHT22;24676;51.360;12.354;2022-12-18T03:52:53;-9.10;99.90
38910;DHT22;24676;51.360;12.354;2022-12-18T03:55:40;-9.00;99.90
38910;DHT22;24676;51.360;12.354;2022-12-18T03:58:25;-9.00;99.90
38910;DHT22;24676;51.360;12.354;2022-12-18T04:01:10;-9.00;99.90
38910;DHT22;24676;51.360;12.354;2022-12-18T04:03:56;-9.00;99.90
38910;DHT22;24676;51.360;12.354;2022-12-18T04:06:41;-9.00;99.90
38910;DHT22;24676;51.360;12.354;2022-12-18T04:09:26;-9.00;99.90
38910;DHT22;24676;51.360;12.354;2022-12-18T04:12:11;-9.00;99.90
38910;DHT22;24676;51.360;12.354;2022-12-18T04:14:55;-9.00;99.90
38910;DHT22;24676;51.360;12.354;2022-12-18T04:17:43;-8.90;99.90
38910;DHT22;24676;51.360;12.354;2022-12-18T04:20:30;-8.90;99.90
38910;DHT22;24676;51.360;12.354;2022-12-18T04:23:14;-8.90;99.90
38910;DHT22;24676;51.360;12.354;2022-12-18T04:25:58;-8.90;99.90
38910;DHT22;24676;51.360;12.354;2022-12-18T04:28:43;-8.80;99.90
38910;DHT22;24676;51.360;12.354;2022-12-18T04:31:27;-8.70;99.90
38910;DHT22;24676;51.360;12.354;2022-12-18T04:34:11;-8.70;99.90
38910;DHT22;24676;51.360;12.354;2022-12-18T04:36:55;-8.70;99.90
38910;DHT22;24676;51.360;12.354;2022-12-18T04:39:39;-8.60;99.90
38910;DHT22;24676;51.360;12.354;2022-12-18T04:42:24;-8.60;99.90
38910;DHT22;24676;51.360;12.354;2022-12-18T04:45:08;-8.70;99.90
38910;DHT22;24676;51.360;12.354;2022-12-18T04:47:52;-8.70;99.90
38910;DHT22;24676;51.360;12.354;2022-12-18T04:50:36;-8.70;99.90
38910;DHT22;24676;51.360;12.354;2022-12-18T04:53:20;-8.70;99.90
38910;DHT22;24676;51.360;12.354;2022-12-18T04:56:11;-8.60;99.90
38910;DHT22;24676;51.360;12.354;2022-12-18T04:58:55;-8.60;99.90
38910;DHT22;24676;51.360;12.354;2022-12-18T05:01:40;-8.50;99.90
38910;DHT22;24676;51.360;12.354;2022-12-18T05:04:24;-8.50;99.90
38910;DHT22;24676;51.360;12.354;2022-12-18T05:07:08;-8.40;99.90
38910;DHT22;24676;51.360;12.354;2022-12-18T05:09:52;-8.40;99.90
38910;DHT22;24676;51.360;12.354;2022-12-18T05:12:37;-8.30;99.90
38910;DHT22;24676;51.360;12.354;2022-12-18T05:15:41;-8.30;99.90
38910;DHT22;24676;51.360;12.354;2022-12-18T05:18:26;-8.30;99.90
38910;DHT22;24676;51.360;12.354;2022-12-18T05:21:10;-8.40;99.90
38910;DHT22;24676;51.360;12.354;2022-12-18T05:23:54;-8.40;99.90
38910;DHT22;24676;51.360;12.354;2022-12-18T05:26:39;-8.40;99.90
38910;DHT22;24676;51.360;12.354;2022-12-18T05:29:23;-8.40;99.90
38910;DHT22;24676;51.360;12.354;2022-12-18T05:32:07;-8.50;99.90
38910;DHT22;24676;51.360;12.354;2022-12-18T05:34:51;-8.60;99.90
38910;DHT22;24676;51.360;12.354;2022-12-18T05:37:36;-8.60;99.90
38910;DHT22;24676;51.360;12.354;2022-12-18T05:40:20;-8.60;99.90
38910;DHT22;24676;51.360;12.354;2022-12-18T05:43:04;-8.60;99.90
38910;DHT22;24676;51.360;12.354;2022-12-18T05:45:48;-8.70;99.90
38910;DHT22;24676;51.360;12.354;2022-12-18T05:48:33;-8.60;99.90
38910;DHT22;24676;51.360;12.354;2022-12-18T05:51:18;-8.60;99.90
38910;DHT22;24676;51.360;12.354;2022-12-18T05:54:03;-8.60;99.90
38910;DHT22;24676;51.360;12.354;2022-12-18T05:56:47;-8.60;99.90
38910;DHT22;24676;51.360;12.354;2022-12-18T05:59:31;-8.50;99.90
38910;DHT22;24676;51.360;12.354;2022-12-18T06:02:15;-8.50;99.90
38910;DHT22;24676;51.360;12.354;2022-12-18T06:04:59;-8.40;99.90
38910;DHT22;24676;51.360;12.354;2022-12-18T06:07:43;-8.30;99.90
38910;DHT22;24676;51.360;12.354;2022-12-18T06:10:28;-8.20;99.90
38910;DHT22;24676;51.360;12.354;2022-12-18T06:13:12;-8.20;99.90
38910;DHT22;24676;51.360;12.354;2022-12-18T06:15:56;-8.30;99.90
38910;DHT22;24676;51.360;12.354;2022-12-18T06:18:40;-8.40;99.90
38910;DHT22;24676;51.360;12.354;2022-12-18T06:21:24;-8.40;99.90
38910;DHT22;24676;51.360;12.354;2022-12-18T06:24:08;-8.40;99.90
38910;DHT22;24676;51.360;12.354;2022-12-18T06:26:53;-8.40;99.90
38910;DHT22;24676;51.360;12.354;2022-12-18T06:29:37;-8.50;99.90
38910;DHT22;24676;51.360;12.354;2022-12-18T06:32:21;-8.50;99.90
38910;DHT22;24676;51.360;12.354;2022-12-18T06:35:05;-8.50;99.90
38910;DHT22;24676;51.360;12.354;2022-12-18T06:37:49;-8.60;99.90
38910;DHT22;24676;51.360;12.354;2022-12-18T06:40:34;-8.50;99.90
38910;DHT22;24676;51.360;12.354;2022-12-18T06:43:18;-8.50;99.90
38910;DHT22;24676;51.360;12.354;2022-12-18T06:46:02;-8.60;99.90
38910;DHT22;24676;51.360;12.354;2022-12-18T06:48:48;-8.60;99.90
38910;DHT22;24676;51.360;12.354;2022-12-18T06:51:33;-8.60;99.90
38910;DHT22;24676;51.360;12.354;2022-12-18T06:54:17;-8.70;99.90
38910;DHT22;24676;51.360;12.354;2022-12-18T06:57:01;-8.70;99.90
38910;DHT22;24676;51.360;12.354;2022-12-18T06:59:45;-8.80;99.90
38910;DHT22;24676;51.360;12.354;2022-12-18T07:02:29;-8.60;99.90
38910;DHT22;24676;51.360;12.354;2022-12-18T07:05:13;-8.50;99.90
38910;DHT22;24676;51.360;12.354;2022-12-18T07:07:58;-8.30;99.90
38910;DHT22;24676;51.360;12.354;2022-12-18T07:10:42;-7.80;99.90
38910;DHT22;24676;51.360;12.354;2022-12-18T07:13:26;-7.60;99.90
38910;DHT22;24676;51.360;12.354;2022-12-18T07:16:11;-7.50;99.90
38910;DHT22;24676;51.360;12.354;2022-12-18T07:18:56;-7.60;99.90
38910;DHT22;24676;51.360;12.354;2022-12-18T07:21:40;-7.60;99.90
38910;DHT22;24676;51.360;12.354;2022-12-18T07:24:24;-7.50;99.90
38910;DHT22;24676;51.360;12.354;2022-12-18T07:27:08;-7.50;99.90
38910;DHT22;24676;51.360;12.354;2022-12-18T07:29:52;-7.60;99.90
38910;DHT22;24676;51.360;12.354;2022-12-18T07:32:36;-7.60;99.90
38910;DHT22;24676;51.360;12.354;2022-12-18T07:35:21;-7.60;99.90
38910;DHT22;24676;51.360;12.354;2022-12-18T07:38:05;-7.60;99.90
38910;DHT22;24676;51.360;12.354;2022-12-18T07:40:49;-7.50;99.90
38910;DHT22;24676;51.360;12.354;2022-12-18T07:43:33;-7.40;99.90
38910;DHT22;24676;51.360;12.354;2022-12-18T07:46:18;-7.30;99.90
38910;DHT22;24676;51.360;12.354;2022-12-18T07:49:02;-7.20;99.90
38910;DHT22;24676;51.360;12.354;2022-12-18T07:51:46;-7.20;99.90
38910;DHT22;24676;51.360;12.354;2022-12-18T07:54:33;-7.00;99.90
38910;DHT22;24676;51.360;12.354;2022-12-18T07:57:17;-6.90;99.90
38910;DHT22;24676;51.360;12.354;2022-12-18T08:00:02;-6.80;99.90
38910;DHT22;24676;51.360;12.354;2022-12-18T08:02:47;-6.60;99.90
38910;DHT22;24676;51.360;12.354;2022-12-18T08:05:31;-6.40;99.90
38910;DHT22;24676;51.360;12.354;2022-12-18T08:08:15;-6.30;99.90
38910;DHT22;24676;51.360;12.354;2022-12-18T08:10:59;-6.20;99.90
38910;DHT22;24676;51.360;12.354;2022-12-18T08:13:44;-6.10;99.90
38910;DHT22;24676;51.360;12.354;2022-12-18T08:16:28;-6.10;99.90
38910;DHT22;24676;51.360;12.354;2022-12-18T08:19:12;-6.00;99.90
38910;DHT22;24676;51.360;12.354;2022-12-18T08:21:56;-6.00;99.90
38910;DHT22;24676;51.360;12.354;2022-12-18T08:24:40;-6.10;99.90
38910;DHT22;24676;51.360;12.354;2022-12-18T08:27:24;-6.10;99.90
38910;DHT22;24676;51.360;12.354;2022-12-18T08:30:09;-6.20;99.90
38910;DHT22;24676;51.360;12.354;2022-12-18T08:32:53;-6.10;99.90
38910;DHT22;24676;51.360;12.354;2022-12-18T08:35:37;-5.90;99.90
38910;DHT22;24676;51.360;12.354;2022-12-18T08:38:22;-5.80;99.90
38910;DHT22;24676;51.360;12.354;2022-12-18T08:41:13;-5.90;99.90
38910;DHT22;24676;51.360;12.354;2022-12-18T08:43:58;-5.90;99.90
38910;DHT22;24676;51.360;12.354;2022-12-18T08:47:01;-5.90;99.90
38910;DHT22;24676;51.360;12.354;2022-12-18T08:49:45;-5.80;99.90
38910;DHT22;24676;51.360;12.354;2022-12-18T08:52:31;-5.70;99.90
38910;DHT22;24676;51.360;12.354;2022-12-18T08:55:15;-5.40;99.90
38910;DHT22;24676;51.360;12.354;2022-12-18T08:57:59;-4.90;99.90
38910;DHT22;24676;51.360;12.354;2022-12-18T09:00:44;-4.50;99.90
38910;DHT22;24676;51.360;12.354;2022-12-18T09:03:28;-4.10;99.90
38910;DHT22;24676;51.360;12.354;2022-12-18T09:06:16;-3.70;99.90
38910;DHT22;24676;51.360;12.354;2022-12-18T09:09:00;-3.50;99.90
38910;DHT22;24676;51.360;12.354;2022-12-18T09:11:44;-2.90;99.90
38910;DHT22;24676;51.360;12.354;2022-12-18T09:14:28;-2.40;99.90
38910;DHT22;24676;51.360;12.354;2022-12-18T09:17:13;-1.80;99.90
38910;DHT22;24676;51.360;12.354;2022-12-18T09:19:57;-1.30;99.90
38910;DHT22;24676;51.360;12.354;2022-12-18T09:22:41;-0.90;99.90
38910;DHT22;24676;51.360;12.354;2022-12-18T09:25:25;-0.80;99.90
38910;DHT22;24676;51.360;12.354;2022-12-18T09:28:12;-0.70;99.90
38910;DHT22;24676;51.360;12.354;2022-12-18T09:31:04;-0.10;98.10
38910;DHT22;24676;51.360;12.354;2022-12-18T09:33:50;0.40;96.20
38910;DHT22;24676;51.360;12.354;2022-12-18T09:36:34;0.70;94.60
38910;DHT22;24676;51.360;12.354;2022-12-18T09:39:18;0.60;86.50
38910;DHT22;24676;51.360;12.354;2022-12-18T09:42:03;0.70;84.60
38910;DHT22;24676;51.360;12.354;2022-12-18T09:44:51;1.10;82.60
38910;DHT22;24676;51.360;12.354;2022-12-18T09:47:39;1.60;81.80
38910;DHT22;24676;51.360;12.354;2022-12-18T09:50:27;1.90;74.00
38910;DHT22;24676;51.360;12.354;2022-12-18T09:53:20;1.70;70.80
38910;DHT22;24676;51.360;12.354;2022-12-18T09:56:11;1.90;78.10
38910;DHT22;24676;51.360;12.354;2022-12-18T09:58:59;2.10;70.50
38910;DHT22;24676;51.360;12.354;2022-12-18T10:01:44;2.00;71.90
38910;DHT22;24676;51.360;12.354;2022-12-18T10:04:28;1.40;71.80
38910;DHT22;24676;51.360;12.354;2022-12-18T10:07:58;1.70;74.50
38910;DHT22;24676;51.360;12.354;2022-12-18T10:13:12;2.90;68.50
38910;DHT22;24676;51.360;12.354;2022-12-18T10:16:09;2.90;65.70
38910;DHT22;24676;51.360;12.354;2022-12-18T10:27:46;2.50;67.00
38910;DHT22;24676;51.360;12.354;2022-12-18T10:30:31;2.40;68.90
38910;DHT22;24676;51.360;12.354;2022-12-18T10:33:16;2.80;67.90
38910;DHT22;24676;51.360;12.354;2022-12-18T10:36:01;3.10;66.50
38910;DHT22;24676;51.360;12.354;2022-12-18T10:38:45;2.80;65.00
38910;DHT22;24676;51.360;12.354;2022-12-18T10:41:29;2.40;65.80
38910;DHT22;24676;51.360;12.354;2022-12-18T10:44:21;2.60;67.30
38910;DHT22;24676;51.360;12.354;2022-12-18T10:47:06;2.70;67.20
38910;DHT22;24676;51.360;12.354;2022-12-18T10:49:54;2.60;67.20
38910;DHT22;24676;51.360;12.354;2022-12-18T10:52:39;2.40;65.40
38910;DHT22;24676;51.360;12.354;2022-12-18T10:55:23;2.20;66.30
38910;DHT22;24676;51.360;12.354;2022-12-18T10:58:30;2.20;68.20
38910;DHT22;24676;51.360;12.354;2022-12-18T11:01:16;2.40;70.20
38910;DHT22;24676;51.360;12.354;2022-12-18T11:04:02;2.50;67.90
38910;DHT22;24676;51.360;12.354;2022-12-18T11:07:07;2.50;67.50
38910;DHT22;24676;51.360;12.354;2022-12-18T11:10:01;2.50;69.00
38910;DHT22;24676;51.360;12.354;2022-12-18T11:12:48;2.70;68.30
38910;DHT22;24676;51.360;12.354;2022-12-18T11:15:32;2.80;66.90
38910;DHT22;24676;51.360;12.354;2022-12-18T11:21:07;1.90;66.90
38910;DHT22;24676;51.360;12.354;2022-12-18T11:23:53;1.70;70.90
38910;DHT22;24676;51.360;12.354;2022-12-18T11:26:37;1.20;71.50
38910;DHT22;24676;51.360;12.354;2022-12-18T11:29:35;0.70;72.70
38910;DHT22;24676;51.360;12.354;2022-12-18T11:32:35;0.60;77.40
38910;DHT22;24676;51.360;12.354;2022-12-18T11:38:24;0.50;79.50
38910;DHT22;24676;51.360;12.354;2022-12-18T11:44:00;0.20;85.00
38910;DHT22;24676;51.360;12.354;2022-12-18T11:46:49;0.10;89.40
38910;DHT22;24676;51.360;12.354;2022-12-18T11:49:35;0.00;87.50
38910;DHT22;24676;51.360;12.354;2022-12-18T11:55:14;0.00;89.30
38910;DHT22;24676;51.360;12.354;2022-12-18T12:01:31;0.20;91.90
38910;DHT22;24676;51.360;12.354;2022-12-18T12:17:02;0.00;90.40
38910;DHT22;24676;51.360;12.354;2022-12-18T12:20:12;-0.30;91.60
38910;DHT22;24676;51.360;12.354;2022-12-18T12:23:30;-0.20;93.60
38910;DHT22;24676;51.360;12.354;2022-12-18T12:32:38;-0.60;94.80
38910;DHT22;24676;51.360;12.354;2022-12-18T12:35:42;-0.80;97.70
38910;DHT22;24676;51.360;12.354;2022-12-18T12:38:33;-1.00;98.00
38910;DHT22;24676;51.360;12.354;2022-12-18T12:41:21;-1.30;99.90
38910;DHT22;24676;51.360;12.354;2022-12-18T12:44:27;-1.40;99.90
38910;DHT22;24676;51.360;12.354;2022-12-18T12:47:14;-1.50;99.90
38910;DHT22;24676;51.360;12.354;2022-12-18T12:50:01;-1.70;99.90
38910;DHT22;24676;51.360;12.354;2022-12-18T12:52:47;-1.80;99.90
38910;DHT22;24676;51.360;12.354;2022-12-18T12:55:32;-2.10;99.90
38910;DHT22;24676;51.360;12.354;2022-12-18T13:04:45;-2.10;99.90
38910;DHT22;24676;51.360;12.354;2022-12-18T13:13:07;-2.20;99.90
38910;DHT22;24676;51.360;12.354;2022-12-18T13:16:06;-2.20;99.90
38910;DHT22;24676;51.360;12.354;2022-12-18T13:18:51;-2.40;99.90
38910;DHT22;24676;51.360;12.354;2022-12-18T13:21:39;-2.40;99.90
38910;DHT22;24676;51.360;12.354;2022-12-18T13:24:27;-2.50;99.90
38910;DHT22;24676;51.360;12.354;2022-12-18T13:28:00;-2.40;99.90
38910;DHT22;24676;51.360;12.354;2022-12-18T13:36:13;-2.60;99.90
38910;DHT22;24676;51.360;12.354;2022-12-18T13:44:51;-2.90;99.90
38910;DHT22;24676;51.360;12.354;2022-12-18T13:47:36;-3.00;99.90
38910;DHT22;24676;51.360;12.354;2022-12-18T13:50:24;-3.10;99.90
38910;DHT22;24676;51.360;12.354;2022-12-18T13:53:15;-3.20;99.90
38910;DHT22;24676;51.360;12.354;2022-12-18T13:56:03;-3.30;99.90
38910;DHT22;24676;51.360;12.354;2022-12-18T14:04:38;-3.50;99.90
38910;DHT22;24676;51.360;12.354;2022-12-18T14:07:40;-3.60;99.90
38910;DHT22;24676;51.360;12.354;2022-12-18T14:10:25;-3.60;99.90
38910;DHT22;24676;51.360;12.354;2022-12-18T14:13:10;-3.70;99.90
38910;DHT22;24676;51.360;12.354;2022-12-18T14:15:58;-3.70;99.90
38910;DHT22;24676;51.360;12.354;2022-12-18T14:18:45;-3.70;99.90
38910;DHT22;24676;51.360;12.354;2022-12-18T14:21:33;-3.70;99.90
38910;DHT22;24676;51.360;12.354;2022-12-18T14:24:20;-3.80;99.90
38910;DHT22;24676;51.360;12.354;2022-12-18T14:27:41;-3.80;99.90
38910;DHT22;24676;51.360;12.354;2022-12-18T14:33:09;-3.90;99.90
38910;DHT22;24676;51.360;12.354;2022-12-18T14:36:01;-4.00;99.90
38910;DHT22;24676;51.360;12.354;2022-12-18T14:38:50;-4.00;99.90
38910;DHT22;24676;51.360;12.354;2022-12-18T14:41:35;-4.10;99.90
38910;DHT22;24676;51.360;12.354;2022-12-18T14:44:19;-4.10;99.90
38910;DHT22;24676;51.360;12.354;2022-12-18T14:47:05;-4.10;99.90
38910;DHT22;24676;51.360;12.354;2022-12-18T14:49:49;-4.10;99.90
38910;DHT22;24676;51.360;12.354;2022-12-18T14:52:33;-4.20;99.90
38910;DHT22;24676;51.360;12.354;2022-12-18T14:55:18;-4.20;99.90
38910;DHT22;24676;51.360;12.354;2022-12-18T14:58:03;-4.30;99.90
38910;DHT22;24676;51.360;12.354;2022-12-18T15:00:47;-4.40;99.90
38910;DHT22;24676;51.360;12.354;2022-12-18T15:03:31;-4.40;99.90
38910;DHT22;24676;51.360;12.354;2022-12-18T15:06:16;-4.40;99.90
38910;DHT22;24676;51.360;12.354;2022-12-18T15:09:02;-4.40;99.90
38910;DHT22;24676;51.360;12.354;2022-12-18T15:11:47;-4.50;99.90
38910;DHT22;24676;51.360;12.354;2022-12-18T15:14:41;-4.50;99.90
38910;DHT22;24676;51.360;12.354;2022-12-18T15:17:26;-4.50;99.90
38910;DHT22;24676;51.360;12.354;2022-12-18T15:20:11;-4.60;99.90
38910;DHT22;24676;51.360;12.354;2022-12-18T15:22:57;-4.60;99.90
38910;DHT22;24676;51.360;12.354;2022-12-18T15:25:41;-4.60;99.90
38910;DHT22;24676;51.360;12.354;2022-12-18T15:28:34;-4.70;99.90
38910;DHT22;24676;51.360;12.354;2022-12-18T15:31:32;-4.80;99.90
38910;DHT22;24676;51.360;12.354;2022-12-18T15:34:22;-4.80;99.90
38910;DHT22;24676;51.360;12.354;2022-12-18T15:37:07;-4.80;99.90
38910;DHT22;24676;51.360;12.354;2022-12-18T15:39:52;-4.80;99.90
38910;DHT22;24676;51.360;12.354;2022-12-18T15:42:36;-4.80;99.90
38910;DHT22;24676;51.360;12.354;2022-12-18T15:45:39;-4.80;99.90
38910;DHT22;24676;51.360;12.354;2022-12-18T15:48:24;-4.80;99.90
38910;DHT22;24676;51.360;12.354;2022-12-18T15:54:00;-4.80;99.90
38910;DHT22;24676;51.360;12.354;2022-12-18T15:56:45;-4.80;99.90
38910;DHT22;24676;51.360;12.354;2022-12-18T15:59:49;-4.80;99.90
38910;DHT22;24676;51.360;12.354;2022-12-18T16:02:34;-4.80;99.90
38910;DHT22;24676;51.360;12.354;2022-12-18T16:05:19;-4.80;99.90
38910;DHT22;24676;51.360;12.354;2022-12-18T16:08:05;-4.80;99.90
38910;DHT22;24676;51.360;12.354;2022-12-18T16:10:50;-4.80;99.90
38910;DHT22;24676;51.360;12.354;2022-12-18T16:13:34;-4.80;99.90
38910;DHT22;24676;51.360;12.354;2022-12-18T16:16:18;-4.80;99.90
38910;DHT22;24676;51.360;12.354;2022-12-18T16:19:02;-4.80;99.90
38910;DHT22;24676;51.360;12.354;2022-12-18T16:21:46;-4.70;99.90
38910;DHT22;24676;51.360;12.354;2022-12-18T16:24:31;-4.80;99.90
38910;DHT22;24676;51.360;12.354;2022-12-18T16:27:16;-4.80;99.90
38910;DHT22;24676;51.360;12.354;2022-12-18T16:30:00;-4.90;99.90
38910;DHT22;24676;51.360;12.354;2022-12-18T16:32:45;-5.00;99.90
38910;DHT22;24676;51.360;12.354;2022-12-18T16:35:29;-5.00;99.90
38910;DHT22;24676;51.360;12.354;2022-12-18T16:38:14;-5.00;99.90
38910;DHT22;24676;51.360;12.354;2022-12-18T16:40:58;-5.00;99.90
38910;DHT22;24676;51.360;12.354;2022-12-18T16:44:01;-5.00;99.90
38910;DHT22;24676;51.360;12.354;2022-12-18T16:46:45;-5.00;99.90
38910;DHT22;24676;51.360;12.354;2022-12-18T16:49:30;-5.00;99.90
38910;DHT22;24676;51.360;12.354;2022-12-18T16:52:14;-5.00;99.90
38910;DHT22;24676;51.360;12.354;2022-12-18T16:54:58;-4.90;99.90
38910;DHT22;24676;51.360;12.354;2022-12-18T16:57:42;-4.90;99.90
38910;DHT22;24676;51.360;12.354;2022-12-18T17:00:27;-4.80;99.90
38910;DHT22;24676;51.360;12.354;2022-12-18T17:03:11;-4.80;99.90
38910;DHT22;24676;51.360;12.354;2022-12-18T17:05:55;-4.70;99.90
38910;DHT22;24676;51.360;12.354;2022-12-18T17:08:44;-4.70;99.90
38910;DHT22;24676;51.360;12.354;2022-12-18T17:11:29;-4.70;99.90
38910;DHT22;24676;51.360;12.354;2022-12-18T17:14:15;-4.70;99.90
38910;DHT22;24676;51.360;12.354;2022-12-18T17:17:00;-4.80;99.90
38910;DHT22;24676;51.360;12.354;2022-12-18T17:19:44;-4.80;99.90
38910;DHT22;24676;51.360;12.354;2022-12-18T17:22:28;-4.80;99.90
38910;DHT22;24676;51.360;12.354;2022-12-18T17:25:12;-4.70;99.90
38910;DHT22;24676;51.360;12.354;2022-12-18T17:27:57;-4.70;99.90
38910;DHT22;24676;51.360;12.354;2022-12-18T17:30:41;-4.70;99.90
38910;DHT22;24676;51.360;12.354;2022-12-18T17:33:25;-4.60;99.90
38910;DHT22;24676;51.360;12.354;2022-12-18T17:36:10;-4.60;99.90
38910;DHT22;24676;51.360;12.354;2022-12-18T17:38:55;-4.60;99.90
38910;DHT22;24676;51.360;12.354;2022-12-18T17:41:41;-4.60;99.90
38910;DHT22;24676;51.360;12.354;2022-12-18T17:44:25;-4.50;99.90
38910;DHT22;24676;51.360;12.354;2022-12-18T17:47:09;-4.50;99.90
38910;DHT22;24676;51.360;12.354;2022-12-18T17:49:54;-4.40;99.90
38910;DHT22;24676;51.360;12.354;2022-12-18T17:52:39;-4.40;99.90
38910;DHT22;24676;51.360;12.354;2022-12-18T17:55:23;-4.40;99.90
38910;DHT22;24676;51.360;12.354;2022-12-18T17:58:08;-4.40;99.90
38910;DHT22;24676;51.360;12.354;2022-12-18T18:00:52;-4.30;99.90
38910;DHT22;24676;51.360;12.354;2022-12-18T18:03:37;-4.30;99.90
38910;DHT22;24676;51.360;12.354;2022-12-18T18:06:22;-4.30;99.90
38910;DHT22;24676;51.360;12.354;2022-12-18T18:09:06;-4.20;99.90
38910;DHT22;24676;51.360;12.354;2022-12-18T18:11:51;-4.20;99.90
38910;DHT22;24676;51.360;12.354;2022-12-18T18:14:54;-4.20;99.90
38910;DHT22;24676;51.360;12.354;2022-12-18T18:17:38;-4.20;99.90
38910;DHT22;24676;51.360;12.354;2022-12-18T18:20:22;-4.20;99.90
38910;DHT22;24676;51.360;12.354;2022-12-18T18:23:06;-4.20;99.90
38910;DHT22;24676;51.360;12.354;2022-12-18T18:25:51;-4.20;99.90
38910;DHT22;24676;51.360;12.354;2022-12-18T18:28:35;-4.20;99.90
38910;DHT22;24676;51.360;12.354;2022-12-18T18:31:19;-4.20;99.90
38910;DHT22;24676;51.360;12.354;2022-12-18T18:34:03;-4.20;99.90
38910;DHT22;24676;51.360;12.354;2022-12-18T18:36:48;-4.10;99.90
38910;DHT22;24676;51.360;12.354;2022-12-18T18:39:32;-4.10;99.90
38910;DHT22;24676;51.360;12.354;2022-12-18T18:42:16;-4.10;99.90
38910;DHT22;24676;51.360;12.354;2022-12-18T18:45:00;-4.10;99.90
38910;DHT22;24676;51.360;12.354;2022-12-18T18:47:45;-4.10;99.90
38910;DHT22;24676;51.360;12.354;2022-12-18T18:50:29;-4.10;99.90
38910;DHT22;24676;51.360;12.354;2022-12-18T18:53:13;-4.10;99.90
38910;DHT22;24676;51.360;12.354;2022-12-18T18:55:58;-4.00;99.90
38910;DHT22;24676;51.360;12.354;2022-12-18T18:58:43;-4.00;99.90
38910;DHT22;24676;51.360;12.354;2022-12-18T19:01:27;-4.00;99.90
38910;DHT22;24676;51.360;12.354;2022-12-18T19:04:11;-4.00;99.90
38910;DHT22;24676;51.360;12.354;2022-12-18T19:07:01;-4.00;99.90